Time;durP1;ratioP1;P1;durP2;ratioP2;P2;SDS_P1;SDS_P2;PMS_P1;PMS_P2;Temp;Humidity;BMP_temperature;BMP_pressure;BME280_temperature;BME280_humidity;BME280_pressure;Samples;Min_cycle;Max_cycle;Signal;HPM_P1;HPM_P2
2023/04/07 00:00:54;;;;;;;;;;;;;;;18.59;50.63;98836.91;2072696;28;20015;-50
2023/04/07 00:01:56;;;;;;;;;;;;;;;18.57;50.89;98828.22;2069885;28;22265;-54
2023/04/07 00:02:56;;;;;;;;;;;;;;;18.55;50.65;98825.72;2065743;28;19933;-55
2023/04/07 00:03:58;;;;;;;;;;;;;;;18.54;50.78;98829.44;2069632;28;19933;-53
2023/04/07 00:04:58;;;;;;;;;;;;;;;18.53;50.62;98823.22;2076282;28;19929;-52
2023/04/07 00:05:59;;;;;;;;;;;;;;;18.55;50.87;98825.72;2068920;28;19954;-51
2023/04/07 00:07:00;;;;;;;;;;;;;;;18.54;50.93;98834.81;2069196;28;20359;-55
2023/04/07 00:08:01;;;;;;;;;;;;;;;18.52;50.79;98824.25;2069183;28;19941;-52
2023/04/07 00:09:02;;;;;;;;;;;;;;;18.52;50.72;98826.09;2063737;28;20014;-54
2023/04/07 00:10:04;;;;;;;;;;;;;;;18.53;51.01;98825.09;2068404;28;19932;-52
2023/04/07 00:11:05;;;;;;;;;;;;;;;18.52;50.86;98831.47;2066969;28;19975;-52
2023/04/07 00:12:07;;;;;;;;;;;;;;;18.50;50.79;98820.94;2069081;28;20407;-59
2023/04/07 00:13:08;;;;;;;;;;;;;;;18.49;50.66;98821.13;2069729;28;20874;-55
2023/04/07 00:14:09;;;;;;;;;;;;;;;18.49;50.87;98816.59;2068122;28;19936;-56
2023/04/07 00:15:10;;;;;;;;;;;;;;;18.50;50.69;98817.44;2070685;28;20708;-56
2023/04/07 00:16:11;;;;;;;;;;;;;;;18.48;50.68;98820.31;2068143;28;19940;-56
2023/04/07 00:17:12;;;;;;;;;;;;;;;18.48;50.59;98814.94;2067778;28;19932;-55
2023/04/07 00:18:13;;;;;;;;;;;;;;;18.46;50.88;98814.28;2067833;28;19936;-56
2023/04/07 00:19:14;;;;;;;;;;;;;;;18.48;50.77;98819.50;2069425;28;19937;-54
2023/04/07 00:20:15;;;;;;;;;;;;;;;18.46;50.63;98818.84;2068843;28;19973;-54
2023/04/07 00:21:16;;;;;;;;;;;;;;;18.45;50.85;98820.72;2068835;28;19940;-53
2023/04/07 00:22:18;;;;;;;;;;;;;;;18.44;50.72;98819.06;2068503;28;20286;-56
2023/04/07 00:23:18;;;;;;;;;;;;;;;18.44;50.75;98812.84;2069322;28;19951;-54
2023/04/07 00:24:20;;;;;;;;;;;;;;;18.43;50.86;98822.75;2069099;28;19939;-55
2023/04/07 00:25:20;;;;;;;;;;;;;;;18.42;50.96;98815.75;2075618;28;19937;-51
2023/04/07 00:26:22;;;;;;;;;;;;;;;18.42;50.77;98814.91;2078632;28;19925;-50
2023/04/07 00:27:24;;;;;;;;;;;;;;;18.40;50.84;98823.16;2075419;28;20336;-51
2023/04/07 00:28:25;;;;;;;;;;;;;;;18.42;50.88;98823.78;2076080;28;19989;-49
2023/04/07 00:29:26;;;;;;;;;;;;;;;18.39;50.62;98826.88;2076265;28;20014;-53
2023/04/07 00:30:27;;;;;;;;;;;;;;;18.40;50.89;98822.31;2075824;28;20062;-53
2023/04/07 00:31:27;;;;;;;;;;;;;;;18.37;50.88;98820.88;2076324;28;19929;-51
2023/04/07 00:32:29;;;;;;;;;;;;;;;18.39;50.96;98816.13;2077089;28;20868;-53
2023/04/07 00:33:30;;;;;;;;;;;;;;;18.38;50.79;98822.50;2077001;28;20507;-53
2023/04/07 00:34:31;;;;;;;;;;;;;;;18.38;50.64;98819.00;2078054;28;19925;-53
2023/04/07 00:35:32;;;;;;;;;;;;;;;18.36;50.77;98821.06;2075345;28;20001;-55
2023/04/07 00:36:33;;;;;;;;;;;;;;;18.36;50.71;98816.53;2077303;28;19999;-54
2023/04/07 00:37:34;;;;;;;;;;;;;;;18.35;50.62;98816.72;2076938;28;20020;-54
2023/04/07 00:38:35;;;;;;;;;;;;;;;18.36;50.70;98821.06;2075687;28;20303;-52
2023/04/07 00:39:36;;;;;;;;;;;;;;;18.32;50.92;98809.88;2079793;28;20566;-52
2023/04/07 00:40:37;;;;;;;;;;;;;;;18.34;50.86;98812.38;2076314;28;19928;-54
2023/04/07 00:41:38;;;;;;;;;;;;;;;18.33;50.64;98816.06;2075908;28;19933;-54
2023/04/07 00:42:40;;;;;;;;;;;;;;;18.31;50.91;98819.81;2076936;28;19959;-51
2023/04/07 00:43:41;;;;;;;;;;;;;;;18.30;50.81;98817.28;2074455;28;19982;-55
2023/04/07 00:44:42;;;;;;;;;;;;;;;18.30;50.66;98817.28;2077555;28;19929;-55
2023/04/07 00:45:43;;;;;;;;;;;;;;;18.30;50.98;98812.78;2065144;28;20604;-54
2023/04/07 00:46:45;;;;;;;;;;;;;;;18.29;50.84;98810.28;2074352;28;20415;-53
2023/04/07 00:47:45;;;;;;;;;;;;;;;18.30;50.79;98815.47;2076470;28;20802;-56
2023/04/07 00:48:47;;;;;;;;;;;;;;;18.28;50.97;98814.81;2077030;28;20016;-53
2023/04/07 00:49:47;;;;;;;;;;;;;;;18.29;50.63;98807.59;2075746;28;19929;-55
2023/04/07 00:50:48;;;;;;;;;;;;;;;18.28;50.91;98809.47;2077893;28;19929;-55
2023/04/07 00:51:49;;;;;;;;;;;;;;;18.28;50.81;98812.13;2073227;28;19967;-53
2023/04/07 00:52:51;;;;;;;;;;;;;;;18.27;50.73;98813.16;2076886;28;19925;-54
2023/04/07 00:53:53;;;;;;;;;;;;;;;18.27;50.82;98813.16;2074103;28;21041;-52
2023/04/07 00:54:55;;;;;;;;;;;;;;;18.27;50.82;98815.00;2077940;28;19990;-56
2023/04/07 00:55:55;;;;;;;;;;;;;;;18.24;50.97;98812.72;2075349;28;19979;-51
2023/04/07 00:56:57;;;;;;;;;;;;;;;18.25;50.85;98814.41;2077686;28;19928;-51
2023/04/07 00:57:59;;;;;;;;;;;;;;;18.25;50.86;98811.72;2074736;28;19928;-56
2023/04/07 00:59:00;;;;;;;;;;;;;;;18.24;50.73;98810.03;2076751;28;20307;-52
2023/04/07 01:00:01;;;;;;;;;;;;;;;18.24;50.71;98815.41;2076751;28;19929;-52
2023/04/07 01:01:04;;;;;;;;;;;;;;;18.23;50.63;98801.16;2075909;28;19970;-55
2023/04/07 01:02:09;;;;;;;;;;;;;;;18.23;50.73;98811.06;2077831;28;20504;-55
2023/04/07 01:03:14;;;;;;;;;;;;;;;18.22;50.72;98810.25;2077561;28;19933;-56
2023/04/07 01:04:21;;;;;;;;;;;;;;;18.19;50.65;98816.00;2077016;28;19975;-51
2023/04/07 01:05:25;;;;;;;;;;;;;;;18.21;50.72;98810.44;2077026;28;20047;-54
2023/04/07 01:06:30;;;;;;;;;;;;;;;18.21;50.71;98815.81;2077097;28;20024;-53
2023/04/07 01:07:35;;;;;;;;;;;;;;;18.19;50.89;98810.66;2076212;28;19929;-54
2023/04/07 01:08:42;;;;;;;;;;;;;;;18.19;50.58;98820.53;2075983;28;19929;-54
2023/04/07 01:09:46;;;;;;;;;;;;;;;18.19;50.88;98817.84;2075781;28;20679;-53
2023/04/07 01:10:50;;;;;;;;;;;;;;;18.19;50.83;98813.34;2077627;28;19982;-54
2023/04/07 01:11:55;;;;;;;;;;;;;;;18.18;50.79;98811.66;2077446;28;19929;-54
2023/04/07 01:13:00;;;;;;;;;;;;;;;18.17;50.77;98806.50;2068600;28;19954;-54
2023/04/07 01:14:03;;;;;;;;;;;;;;;18.18;50.79;98811.66;2067808;28;19929;-52
2023/04/07 01:15:06;;;;;;;;;;;;;;;18.16;50.86;98811.00;2068471;28;20168;-57
2023/04/07 01:16:11;;;;;;;;;;;;;;;18.16;50.91;98804.81;2065321;28;20723;-54
2023/04/07 01:17:12;;;;;;;;;;;;;;;18.14;50.76;98806.88;2067772;28;20013;-53
2023/04/07 01:18:17;;;;;;;;;;;;;;;18.12;50.96;98804.38;2056853;28;19961;-56
2023/04/07 01:19:29;;;;;;;;;;;;;;;18.11;50.82;98802.75;2060100;28;19929;-53
2023/04/07 01:20:32;;;;;;;;;;;;;;;18.09;51.28;98802.09;2082537;28;19935;-53
2023/04/07 01:21:34;;;;;;;;;;;;;;;18.11;51.09;98800.06;2076973;28;20299;-52
2023/04/07 01:22:40;;;;;;;;;;;;;;;18.12;50.99;98798.19;2077466;28;19935;-55
2023/04/07 01:23:48;;;;;;;;;;;;;;;18.11;50.81;98793.84;2071315;28;19978;-52
2023/04/07 01:25:00;;;;;;;;;;;;;;;18.11;50.80;98785.78;2074820;28;19929;-54
2023/04/07 01:26:13;;;;;;;;;;;;;;;18.09;50.89;98789.50;2081106;28;19971;-55
2023/04/07 01:27:19;;;;;;;;;;;;;;;18.08;50.73;98790.53;2076635;28;20021;-54
2023/04/07 01:28:32;;;;;;;;;;;;;;;18.08;50.71;98787.84;2075749;28;20259;-56
2023/04/07 01:29:39;;;;;;;;;;;;;;;18.07;50.90;98790.72;2075602;28;19932;-54
2023/04/07 01:30:40;;;;;;;;;;;;;;;18.05;50.94;98785.56;2076747;28;19971;-54
2023/04/07 01:31:42;;;;;;;;;;;;;;;18.05;51.02;98784.72;2084272;28;19940;-54
2023/04/07 01:32:44;;;;;;;;;;;;;;;18.04;50.79;98785.75;2084924;28;19928;-54
2023/04/07 01:33:46;;;;;;;;;;;;;;;18.04;50.98;98791.94;2073100;28;19929;-54
2023/04/07 01:34:47;;;;;;;;;;;;;;;18.06;51.11;98792.59;2067440;28;20371;-54
2023/04/07 01:35:49;;;;;;;;;;;;;;;18.04;50.81;98791.13;2072379;28;20033;-53
2023/04/07 01:36:51;;;;;;;;;;;;;;;18.03;50.94;98784.94;2077788;28;19975;-55
2023/04/07 01:37:53;;;;;;;;;;;;;;;18.03;50.86;98795.66;2076800;28;21158;-52
2023/04/07 01:38:54;;;;;;;;;;;;;;;18.03;51.10;98792.16;2075170;28;20834;-54
2023/04/07 01:39:55;;;;;;;;;;;;;;;18.03;50.88;98786.78;2078219;28;19982;-55
2023/04/07 01:40:57;;;;;;;;;;;;;;;18.01;51.01;98795.03;2075280;28;19974;-54
2023/04/07 01:42:01;;;;;;;;;;;;;;;18.01;51.09;98791.50;2076661;28;19929;-55
2023/04/07 01:43:01;;;;;;;;;;;;;;;17.99;51.08;98793.56;2079388;28;20021;-53
2023/04/07 01:44:04;;;;;;;;;;;;;;;17.99;50.77;98797.06;2073257;28;19990;-54
2023/04/07 01:45:07;;;;;;;;;;;;;;;18.00;51.02;98792.56;2078073;28;19940;-52
2023/04/07 01:46:08;;;;;;;;;;;;;;;17.98;50.95;98797.28;2078294;28;20092;-54
2023/04/07 01:47:09;;;;;;;;;;;;;;;17.98;50.96;98792.72;2079240;28;19933;-55
2023/04/07 01:48:11;;;;;;;;;;;;;;;17.97;51.01;98788.41;2081708;28;19986;-53
2023/04/07 01:49:12;;;;;;;;;;;;;;;17.97;51.13;98790.22;2079080;28;19935;-55
2023/04/07 01:50:14;;;;;;;;;;;;;;;17.97;51.07;98785.72;2078018;28;19933;-55
2023/04/07 01:51:17;;;;;;;;;;;;;;;17.95;51.08;98793.13;2078029;28;19929;-55
2023/04/07 01:52:19;;;;;;;;;;;;;;;17.96;51.18;98791.25;2074714;28;20146;-55
2023/04/07 01:53:20;;;;;;;;;;;;;;;17.95;51.05;98786.94;2077819;28;19928;-54
2023/04/07 01:54:22;;;;;;;;;;;;;;;17.94;50.70;98796.84;2077319;28;20366;-55
2023/04/07 01:55:22;;;;;;;;;;;;;;;17.93;50.95;98800.53;2080482;28;19975;-54
2023/04/07 01:56:24;;;;;;;;;;;;;;;17.95;50.88;98797.66;2077565;28;19933;-55
2023/04/07 01:57:25;;;;;;;;;;;;;;;17.92;50.86;98785.47;2078604;28;20516;-53
2023/04/07 01:58:26;;;;;;;;;;;;;;;17.94;50.93;98787.94;2079658;28;20019;-51
2023/04/07 01:59:27;;;;;;;;;;;;;;;17.93;50.88;98795.16;2076991;28;20688;-55
2023/04/07 02:00:30;;;;;;;;;;;;;;;17.93;51.07;98789.81;2075825;28;20002;-55
2023/04/07 02:01:30;;;;;;;;;;;;;;;17.92;50.87;98780.09;2078092;28;21434;-55
2023/04/07 02:02:33;;;;;;;;;;;;;;;17.91;50.73;98786.47;2079203;28;19925;-54
2023/04/07 02:03:37;;;;;;;;;;;;;;;17.91;50.91;98786.47;2081913;28;19954;-56
2023/04/07 02:04:44;;;;;;;;;;;;;;;17.92;51.14;98785.47;2078568;28;19929;-51
2023/04/07 02:05:46;;;;;;;;;;;;;;;17.92;50.69;98781.97;2078443;28;20002;-51
2023/04/07 02:06:50;;;;;;;;;;;;;;;17.90;50.98;98784.00;2078608;28;20028;-55
2023/04/07 02:07:52;;;;;;;;;;;;;;;17.89;51.19;98785.88;2080533;28;19977;-52
2023/04/07 02:08:55;;;;;;;;;;;;;;;17.88;50.99;98776.13;2076233;28;19971;-55
2023/04/07 02:09:57;;;;;;;;;;;;;;;17.88;50.96;98781.50;2078391;28;19924;-55
2023/04/07 02:11:02;;;;;;;;;;;;;;;17.87;50.86;98782.53;2082736;28;19935;-54
2023/04/07 02:12:04;;;;;;;;;;;;;;;17.88;50.89;98776.13;2087868;28;19956;-50
2023/04/07 02:13:07;;;;;;;;;;;;;;;17.86;50.70;98773.66;2087358;28;19932;-55
2023/04/07 02:14:08;;;;;;;;;;;;;;;17.86;51.00;98773.66;2085932;28;19944;-53
2023/04/07 02:15:11;;;;;;;;;;;;;;;17.86;51.12;98776.34;2080215;28;19932;-54
2023/04/07 02:16:14;;;;;;;;;;;;;;;17.84;50.78;98761.47;2078315;28;19940;-55
2023/04/07 02:17:16;;;;;;;;;;;;;;;17.84;50.90;98770.34;2078429;28;19933;-51
2023/04/07 02:18:18;;;;;;;;;;;;;;;17.83;50.65;98770.56;2079444;28;19963;-50
2023/04/07 02:19:19;;;;;;;;;;;;;;;17.84;51.17;98769.50;2079872;28;20011;-52
2023/04/07 02:20:21;;;;;;;;;;;;;;;17.84;51.06;98767.66;2079730;28;20452;-54
2023/04/07 02:21:22;;;;;;;;;;;;;;;17.84;51.13;98764.16;2078637;28;20023;-55
2023/04/07 02:22:24;;;;;;;;;;;;;;;17.82;50.97;98760.81;2078084;28;20563;-54
2023/04/07 02:23:25;;;;;;;;;;;;;;;17.83;50.90;98760.63;2078008;28;19986;-55
2023/04/07 02:24:26;;;;;;;;;;;;;;;17.82;51.03;98756.28;2078857;28;20542;-54
2023/04/07 02:25:27;;;;;;;;;;;;;;;17.81;51.13;98756.50;2085835;28;20499;-53
2023/04/07 02:26:32;;;;;;;;;;;;;;;17.80;50.84;98752.13;2086583;28;19978;-56
2023/04/07 02:27:33;;;;;;;;;;;;;;;17.79;51.07;98747.81;2086841;28;19928;-56
2023/04/07 02:28:34;;;;;;;;;;;;;;;17.78;50.98;98754.16;2088255;28;19932;-54
2023/04/07 02:29:35;;;;;;;;;;;;;;;17.80;50.83;98752.97;2086244;28;19928;-54
2023/04/07 02:30:36;;;;;;;;;;;;;;;17.78;50.84;98746.13;2087390;28;19998;-56
2023/04/07 02:31:38;;;;;;;;;;;;;;;17.77;50.91;98753.31;2086901;28;19929;-53
2023/04/07 02:32:40;;;;;;;;;;;;;;;17.78;50.98;98756.84;2086207;28;19936;-53
2023/04/07 02:33:40;;;;;;;;;;;;;;;17.74;50.80;98748.34;2087403;28;19960;-56
2023/04/07 02:34:42;;;;;;;;;;;;;;;17.74;50.85;98750.19;2087180;28;19935;-52
2023/04/07 02:35:42;;;;;;;;;;;;;;;17.75;50.69;98747.34;2084848;28;20368;-52
2023/04/07 02:36:43;;;;;;;;;;;;;;;17.74;51.13;98747.53;2086557;28;19924;-54
2023/04/07 02:37:45;;;;;;;;;;;;;;;17.75;50.97;98751.88;2086204;28;20008;-53
2023/04/07 02:38:46;;;;;;;;;;;;;;;17.76;50.83;98742.78;2084030;28;19925;-52
2023/04/07 02:39:46;;;;;;;;;;;;;;;17.73;50.70;98743.19;2086753;28;19929;-57
2023/04/07 02:40:48;;;;;;;;;;;;;;;17.73;51.12;98746.69;2084032;28;19981;-55
2023/04/07 02:41:48;;;;;;;;;;;;;;;17.72;50.99;98742.38;2087962;28;19982;-52
2023/04/07 02:42:50;;;;;;;;;;;;;;;17.73;51.04;98751.25;2084106;28;19937;-58
2023/04/07 02:43:51;;;;;;;;;;;;;;;17.71;51.13;98743.38;2084309;28;19975;-59
2023/04/07 02:44:52;;;;;;;;;;;;;;;17.71;50.81;98743.38;2084560;28;19940;-57
2023/04/07 02:45:53;;;;;;;;;;;;;;;17.72;50.91;98742.38;2086095;28;20668;-54
2023/04/07 02:46:56;;;;;;;;;;;;;;;17.72;51.07;98741.50;2087012;28;19936;-55
2023/04/07 02:47:56;;;;;;;;;;;;;;;17.70;51.07;98746.28;2084519;28;19936;-51
2023/04/07 02:48:58;;;;;;;;;;;;;;;17.70;50.91;98740.91;2083642;28;19940;-58
2023/04/07 02:49:58;;;;;;;;;;;;;;;17.70;51.00;98740.91;2087107;28;19928;-50
2023/04/07 02:51:00;;;;;;;;;;;;;;;17.70;50.91;98748.94;2085475;28;20391;-56
2023/04/07 02:52:00;;;;;;;;;;;;;;;17.69;50.93;98749.94;2086822;28;19950;-54
2023/04/07 02:53:02;;;;;;;;;;;;;;;17.65;50.77;98744.97;2084707;28;19925;-52
2023/04/07 02:54:02;;;;;;;;;;;;;;;17.66;50.91;98745.81;2083367;28;19928;-53
2023/04/07 02:55:04;;;;;;;;;;;;;;;17.68;51.17;98740.25;2084208;28;19982;-54
2023/04/07 02:56:05;;;;;;;;;;;;;;;17.67;50.92;98741.28;2084720;28;19928;-50
2023/04/07 02:57:06;;;;;;;;;;;;;;;17.63;50.90;98741.69;2078513;28;19936;-58
2023/04/07 02:58:07;;;;;;;;;;;;;;;17.63;50.97;98741.69;2082774;28;19977;-52
2023/04/07 02:59:08;;;;;;;;;;;;;;;17.66;50.88;98751.16;2082601;28;20918;-50
2023/04/07 03:00:09;;;;;;;;;;;;;;;17.63;50.97;98747.06;2077362;28;20062;-55
2023/04/07 03:01:11;;;;;;;;;;;;;;;17.62;51.00;98750.75;2076729;28;21630;-55
2023/04/07 03:02:13;;;;;;;;;;;;;;;17.64;50.94;98747.88;2082177;28;20878;-50
2023/04/07 03:03:14;;;;;;;;;;;;;;;17.62;50.75;98745.38;2083611;28;19985;-51
2023/04/07 03:04:15;;;;;;;;;;;;;;;17.61;50.87;98743.72;2076542;28;20977;-55
2023/04/07 03:05:16;;;;;;;;;;;;;;;17.62;50.86;98748.06;2079647;28;19929;-59
2023/04/07 03:06:17;;;;;;;;;;;;;;;17.59;50.98;98745.75;2081750;28;20959;-59
2023/04/07 03:07:18;;;;;;;;;;;;;;;17.60;51.00;98752.78;2077284;28;19941;-54
2023/04/07 03:08:19;;;;;;;;;;;;;;;17.62;51.03;98749.91;2074226;28;19939;-52
2023/04/07 03:09:20;;;;;;;;;;;;;;;17.60;50.83;98747.41;2076809;28;19940;-56
2023/04/07 03:10:21;;;;;;;;;;;;;;;17.62;51.02;98750.75;2075162;28;20854;-51
2023/04/07 03:11:22;;;;;;;;;;;;;;;17.61;51.03;98750.94;2076456;28;19954;-54
2023/04/07 03:12:23;;;;;;;;;;;;;;;17.60;51.04;98747.41;2081202;28;19924;-55
2023/04/07 03:13:24;;;;;;;;;;;;;;;17.61;51.03;98754.47;2077297;28;20920;-56
2023/04/07 03:14:25;;;;;;;;;;;;;;;17.61;50.91;98751.78;2078072;28;19933;-56
2023/04/07 03:15:26;;;;;;;;;;;;;;;17.59;50.99;98748.44;2081032;28;19932;-55
2023/04/07 03:16:27;;;;;;;;;;;;;;;17.64;50.81;98753.25;2076149;28;22100;-54
2023/04/07 03:17:30;;;;;;;;;;;;;;;17.66;50.85;98756.53;2076258;28;19950;-56
2023/04/07 03:18:30;;;;;;;;;;;;;;;17.67;50.94;98752.03;2079227;28;19989;-55
2023/04/07 03:19:32;;;;;;;;;;;;;;;17.70;50.75;98751.63;2080059;28;20014;-58
2023/04/07 03:20:32;;;;;;;;;;;;;;;17.70;50.68;98759.69;2081533;28;19925;-55
2023/04/07 03:21:34;;;;;;;;;;;;;;;17.71;50.74;98747.91;2076121;28;19924;-54
2023/04/07 03:22:34;;;;;;;;;;;;;;;17.71;50.64;98753.28;2078978;28;19929;-53
2023/04/07 03:23:36;;;;;;;;;;;;;;;17.72;50.55;98749.56;2073185;28;19929;-59
2023/04/07 03:24:38;;;;;;;;;;;;;;;17.73;50.34;98752.06;2075574;28;19928;-59
2023/04/07 03:25:41;;;;;;;;;;;;;;;17.76;50.40;98756.22;2079151;28;20011;-50
2023/04/07 03:26:41;;;;;;;;;;;;;;;17.76;50.43;98750.84;2078849;28;19987;-52
2023/04/07 03:27:42;;;;;;;;;;;;;;;17.77;50.52;98747.94;2080026;28;20924;-55
2023/04/07 03:28:43;;;;;;;;;;;;;;;17.81;50.32;98745.75;2074750;28;19928;-59
2023/04/07 03:29:45;;;;;;;;;;;;;;;17.82;50.44;98752.78;2074922;28;20767;-58
2023/04/07 03:30:46;;;;;;;;;;;;;;;17.83;50.34;98747.22;2077879;28;19936;-55
2023/04/07 03:31:47;;;;;;;;;;;;;;;17.84;50.33;98745.38;2085550;28;19933;-50
2023/04/07 03:32:49;;;;;;;;;;;;;;;17.85;50.32;98747.00;2085030;28;19974;-55
2023/04/07 03:33:50;;;;;;;;;;;;;;;17.86;50.46;98740.63;2084022;28;20433;-57
2023/04/07 03:34:51;;;;;;;;;;;;;;;17.88;50.37;98743.13;2082067;28;20352;-58
2023/04/07 03:35:52;;;;;;;;;;;;;;;17.89;50.45;98742.94;2083071;28;19937;-56
2023/04/07 03:36:54;;;;;;;;;;;;;;;17.92;50.38;98742.53;2084285;28;20432;-55
2023/04/07 03:37:54;;;;;;;;;;;;;;;17.95;50.10;98744.81;2086812;28;20414;-56
2023/04/07 03:38:56;;;;;;;;;;;;;;;17.97;50.17;98741.91;2084088;28;19975;-56
2023/04/07 03:39:57;;;;;;;;;;;;;;;17.99;50.03;98738.03;2085214;28;19928;-56
2023/04/07 03:40:57;;;;;;;;;;;;;;;18.04;50.12;98749.00;2083887;28;19981;-52
2023/04/07 03:41:59;;;;;;;;;;;;;;;18.08;49.86;98744.91;2080529;28;19936;-57
2023/04/07 03:43:00;;;;;;;;;;;;;;;18.09;49.83;98741.19;2082796;28;19986;-54
2023/04/07 03:44:01;;;;;;;;;;;;;;;18.18;49.75;98749.09;2083572;28;19932;-55
2023/04/07 03:45:02;;;;;;;;;;;;;;;18.20;49.98;98747.03;2083613;28;20014;-53
2023/04/07 03:46:03;;;;;;;;;;;;;;;18.26;49.76;98748.94;2084278;27;20066;-53
2023/04/07 03:47:04;;;;;;;;;;;;;;;18.31;49.73;98754.53;2084999;28;19982;-55
2023/04/07 03:48:09;;;;;;;;;;;;;;;18.36;49.52;98752.09;2084735;28;19941;-57
2023/04/07 03:49:09;;;;;;;;;;;;;;;18.41;49.72;98743.41;2084428;28;19932;-50
2023/04/07 03:50:11;;;;;;;;;;;;;;;18.41;49.68;98751.47;2075606;28;19939;-51
2023/04/07 03:51:11;;;;;;;;;;;;;;;18.48;49.46;98744.28;2079884;28;19933;-51
2023/04/07 03:52:14;;;;;;;;;;;;;;;18.46;49.64;98736.41;2086554;28;19998;-55
2023/04/07 03:53:15;;;;;;;;;;;;;;;18.49;49.67;98741.38;2085910;28;20061;-59
2023/04/07 03:54:17;;;;;;;;;;;;;;;18.51;49.46;98738.50;2076196;28;19968;-51
2023/04/07 03:55:17;;;;;;;;;;;;;;;18.56;49.64;98743.28;2078287;28;19928;-52
2023/04/07 03:56:18;;;;;;;;;;;;;;;18.54;49.41;98747.00;2078306;28;19982;-49
2023/04/07 03:57:19;;;;;;;;;;;;;;;18.60;49.35;98747.22;2075459;28;19928;-56
2023/04/07 03:58:20;;;;;;;;;;;;;;;18.61;49.55;98741.66;2077014;28;19928;-54
2023/04/07 03:59:21;;;;;;;;;;;;;;;18.63;49.70;98750.31;2076498;28;19989;-58
2023/04/07 04:00:22;;;;;;;;;;;;;;;18.67;49.46;98742.72;2076460;28;19932;-58
2023/04/07 04:01:23;;;;;;;;;;;;;;;18.68;49.14;98747.03;2076084;28;20006;-55
2023/04/07 04:02:24;;;;;;;;;;;;;;;18.69;49.25;98738.78;2075156;28;20387;-53
2023/04/07 04:03:26;;;;;;;;;;;;;;;18.75;49.14;98737.19;2077996;28;19940;-55
2023/04/07 04:04:28;;;;;;;;;;;;;;;18.77;49.31;98740.47;2080307;28;19928;-53
2023/04/07 04:05:28;;;;;;;;;;;;;;;18.77;49.11;98737.78;2079561;28;20309;-50
2023/04/07 04:06:30;;;;;;;;;;;;;;;18.78;49.13;98739.47;2083367;28;19936;-55
2023/04/07 04:07:32;;;;;;;;;;;;;;;18.81;49.27;98739.06;2081114;28;20036;-56
2023/04/07 04:08:34;;;;;;;;;;;;;;;18.82;49.18;98735.34;2077257;28;19967;-48
2023/04/07 04:09:34;;;;;;;;;;;;;;;18.86;49.07;98735.75;2074282;28;19967;-53
2023/04/07 04:10:36;;;;;;;;;;;;;;;18.86;49.20;98741.97;2076648;28;20306;-52
2023/04/07 04:11:36;;;;;;;;;;;;;;;18.88;49.00;98745.28;2075962;28;19928;-53
2023/04/07 04:12:38;;;;;;;;;;;;;;;18.90;49.14;98742.41;2077612;28;19952;-57
2023/04/07 04:13:38;;;;;;;;;;;;;;;18.91;48.95;98735.97;2079535;28;19948;-59
2023/04/07 04:14:40;;;;;;;;;;;;;;;18.91;49.00;98742.16;2077287;28;19936;-52
2023/04/07 04:15:40;;;;;;;;;;;;;;;18.92;49.00;98741.16;2076683;28;20399;-55
2023/04/07 04:16:41;;;;;;;;;;;;;;;18.96;48.99;98741.56;2076555;28;19932;-53
2023/04/07 04:17:42;;;;;;;;;;;;;;;18.95;48.73;98740.75;2076688;28;20552;-55
2023/04/07 04:18:45;;;;;;;;;;;;;;;18.96;49.24;98741.56;2075449;28;19936;-55
2023/04/07 04:19:45;;;;;;;;;;;;;;;18.96;48.80;98742.41;2078089;28;20029;-55
2023/04/07 04:20:47;;;;;;;;;;;;;;;18.99;48.95;98749.22;2076349;28;22206;-51
2023/04/07 04:21:48;;;;;;;;;;;;;;;18.98;48.84;98748.41;2077504;28;20409;-52
2023/04/07 04:22:49;;;;;;;;;;;;;;;19.00;48.65;98742.00;2082842;28;19929;-53
2023/04/07 04:23:50;;;;;;;;;;;;;;;19.00;48.77;98742.00;2077098;28;19932;-59
2023/04/07 04:24:51;;;;;;;;;;;;;;;19.01;48.77;98743.66;2077156;28;20452;-58
2023/04/07 04:25:51;;;;;;;;;;;;;;;19.02;48.66;98746.13;2074934;28;19940;-56
2023/04/07 04:26:53;;;;;;;;;;;;;;;19.03;49.09;98742.44;2085325;28;19962;-52
2023/04/07 04:27:53;;;;;;;;;;;;;;;19.04;49.00;98744.06;2084677;28;19924;-55
2023/04/07 04:28:55;;;;;;;;;;;;;;;19.05;48.69;98747.59;2085374;28;19929;-53
2023/04/07 04:29:55;;;;;;;;;;;;;;;19.06;49.08;98743.88;2083406;28;20352;-55
2023/04/07 04:30:57;;;;;;;;;;;;;;;19.07;48.76;98753.59;2084650;28;19925;-53
2023/04/07 04:31:58;;;;;;;;;;;;;;;19.05;48.85;98745.72;2087779;28;19961;-56
2023/04/07 04:32:59;;;;;;;;;;;;;;;19.08;48.66;98752.56;2086942;28;19932;-56
2023/04/07 04:34:01;;;;;;;;;;;;;;;19.08;49.11;98750.69;2085248;28;19932;-55
2023/04/07 04:35:03;;;;;;;;;;;;;;;19.08;48.99;98755.25;2086821;28;20044;-55
2023/04/07 04:36:04;;;;;;;;;;;;;;;19.08;48.74;98753.38;2086511;28;19987;-55
2023/04/07 04:37:06;;;;;;;;;;;;;;;19.11;48.88;98757.53;2085160;28;20676;-55
2023/04/07 04:38:06;;;;;;;;;;;;;;;19.10;49.05;98750.50;2084177;28;19991;-51
2023/04/07 04:39:08;;;;;;;;;;;;;;;19.10;48.67;98753.19;2083362;28;19929;-52
2023/04/07 04:40:09;;;;;;;;;;;;;;;19.10;48.62;98756.69;2085610;28;19936;-51
2023/04/07 04:41:10;;;;;;;;;;;;;;;19.11;48.93;98761.06;2086689;28;19936;-54
2023/04/07 04:42:11;;;;;;;;;;;;;;;19.12;48.85;98760.03;2086656;28;19977;-53
2023/04/07 04:43:12;;;;;;;;;;;;;;;19.12;48.68;98756.50;2086182;28;20353;-51
2023/04/07 04:44:13;;;;;;;;;;;;;;;19.13;48.93;98758.16;2085752;28;19928;-53
2023/04/07 04:45:14;;;;;;;;;;;;;;;19.12;48.67;98761.88;2083782;28;20688;-53
2023/04/07 04:46:15;;;;;;;;;;;;;;;19.13;48.64;98766.22;2084504;28;19981;-54
2023/04/07 04:47:17;;;;;;;;;;;;;;;19.12;48.81;98765.41;2086381;28;20313;-54
2023/04/07 04:48:18;;;;;;;;;;;;;;;19.14;48.67;98770.59;2077726;28;19933;-52
2023/04/07 04:49:21;;;;;;;;;;;;;;;19.12;48.76;98776.16;2084256;28;19951;-53
2023/04/07 04:50:21;;;;;;;;;;;;;;;19.13;48.64;98766.22;2087223;28;19974;-52
2023/04/07 04:51:22;;;;;;;;;;;;;;;19.13;48.78;98774.28;2087499;28;20322;-54
2023/04/07 04:52:23;;;;;;;;;;;;;;;19.13;48.74;98771.59;2086849;28;19933;-53
2023/04/07 04:53:24;;;;;;;;;;;;;;;19.12;48.59;98770.78;2084800;28;19925;-54
2023/04/07 04:54:25;;;;;;;;;;;;;;;19.13;48.66;98779.66;2083734;28;19928;-53
2023/04/07 04:55:26;;;;;;;;;;;;;;;19.13;48.57;98775.09;2083860;28;19937;-52
2023/04/07 04:56:27;;;;;;;;;;;;;;;19.12;48.62;98773.47;2084174;28;19968;-51
2023/04/07 04:57:28;;;;;;;;;;;;;;;19.12;48.88;98778.03;2085014;28;19973;-53
2023/04/07 04:58:29;;;;;;;;;;;;;;;19.12;48.61;98780.69;2086743;28;20010;-53
2023/04/07 04:59:30;;;;;;;;;;;;;;;19.12;48.71;98778.84;2086762;28;20489;-54
2023/04/07 05:00:31;;;;;;;;;;;;;;;19.13;48.58;98772.41;2086367;28;19994;-53
2023/04/07 05:01:32;;;;;;;;;;;;;;;19.13;48.59;98774.28;2086937;28;19932;-53
2023/04/07 05:02:32;;;;;;;;;;;;;;;19.12;48.80;98775.31;2085947;28;19933;-50
2023/04/07 05:03:34;;;;;;;;;;;;;;;19.14;48.58;98778.66;2084534;28;19932;-53
2023/04/07 05:04:36;;;;;;;;;;;;;;;19.13;48.67;98771.59;2085496;28;20698;-52
2023/04/07 05:05:37;;;;;;;;;;;;;;;19.14;48.57;98781.34;2084962;28;19974;-53
2023/04/07 05:06:38;;;;;;;;;;;;;;;19.15;48.86;98772.22;2084516;28;19954;-54
2023/04/07 05:07:40;;;;;;;;;;;;;;;19.15;48.53;98772.22;2085781;28;20416;-52
2023/04/07 05:08:41;;;;;;;;;;;;;;;19.16;48.73;98777.38;2085917;28;19936;-50
2023/04/07 05:09:42;;;;;;;;;;;;;;;19.16;48.71;98779.25;2085596;28;19932;-54
2023/04/07 05:10:43;;;;;;;;;;;;;;;19.15;48.74;98766.84;2085895;28;19977;-51
2023/04/07 05:11:44;;;;;;;;;;;;;;;19.16;48.46;98772.00;2087221;28;20352;-53
2023/04/07 05:12:45;;;;;;;;;;;;;;;19.16;48.44;98781.94;2086518;28;19943;-54
2023/04/07 05:13:47;;;;;;;;;;;;;;;19.16;48.73;98768.50;2082188;28;20375;-51
2023/04/07 05:14:47;;;;;;;;;;;;;;;19.15;48.39;98775.75;2076699;28;20006;-51
2023/04/07 05:15:49;;;;;;;;;;;;;;;19.14;48.48;98779.47;2074948;28;20512;-53
2023/04/07 05:16:49;;;;;;;;;;;;;;;19.16;48.52;98779.25;2075783;28;20567;-55
2023/04/07 05:17:51;;;;;;;;;;;;;;;19.16;48.86;98784.63;2077623;28;19928;-54
2023/04/07 05:18:51;;;;;;;;;;;;;;;19.15;48.53;98782.97;2075379;28;19929;-53
2023/04/07 05:19:54;;;;;;;;;;;;;;;19.15;48.71;98767.66;2074701;28;20669;-55
2023/04/07 05:20:55;;;;;;;;;;;;;;;19.17;48.62;98781.75;2076527;28;20987;-52
2023/04/07 05:21:56;;;;;;;;;;;;;;;19.19;48.67;98778.84;2082370;28;19990;-53